Time;durP1;ratioP1;P1;durP2;ratioP2;P2;SDS_P1;SDS_P2;PMS_P1;PMS_P2;Temp;Humidity;BMP_temperature;BMP_pressure;BME280_temperature;BME280_humidity;BME280_pressure;Samples;Min_cycle;Max_cycle;Signal;HPM_P1;HPM_P2
2023/10/31 00:00:11;;;;;;;;;;;20.10;70.70;;;;;;7391973;19;4777;-63
2023/10/31 00:02:36;;;;;;;;;;;20.10;70.90;;;;;;7395011;19;3805;-63
2023/10/31 00:05:02;;;;;;;;;;;20.10;70.90;;;;;;7396636;19;3288;-64
2023/10/31 00:07:27;;;;;;;;;;;20.00;70.90;;;;;;7396892;19;1746;-63
2023/10/31 00:09:53;;;;;;;;;;;20.00;71.00;;;;;;7393861;19;5176;-64
2023/10/31 00:12:18;;;;;;;;;;;20.00;71.00;;;;;;7394745;19;1741;-63
2023/10/31 00:14:43;;;;;;;;;;;20.00;71.00;;;;;;7391277;19;4050;-64
2023/10/31 00:17:09;;;;;;;;;;;20.00;71.20;;;;;;7394515;19;3693;-64
2023/10/31 00:19:34;;;;;;;;;;;20.00;71.00;;;;;;7393492;19;3433;-63
2023/10/31 00:22:00;;;;;;;;;;;19.90;71.20;;;;;;7395022;19;3130;-63
2023/10/31 00:24:25;;;;;;;;;;;19.90;71.40;;;;;;7388170;19;4090;-63
2023/10/31 00:26:51;;;;;;;;;;;19.90;71.20;;;;;;7394057;19;2697;-63
2023/10/31 00:29:17;;;;;;;;;;;19.90;71.30;;;;;;7394302;19;2042;-63
2023/10/31 00:31:42;;;;;;;;;;;19.90;71.40;;;;;;7388678;19;4092;-63
2023/10/31 00:34:08;;;;;;;;;;;19.90;71.50;;;;;;7395870;19;3571;-63
2023/10/31 00:36:34;;;;;;;;;;;19.80;71.60;;;;;;7394799;19;1788;-64
2023/10/31 00:38:59;;;;;;;;;;;19.80;71.80;;;;;;7393083;19;4059;-64
2023/10/31 00:41:25;;;;;;;;;;;19.80;71.90;;;;;;7393754;19;2174;-63
2023/10/31 00:43:50;;;;;;;;;;;19.80;71.90;;;;;;7389764;19;5040;-62
2023/10/31 00:46:15;;;;;;;;;;;19.70;72.00;;;;;;7390052;19;3763;-63
2023/10/31 00:48:41;;;;;;;;;;;19.70;72.10;;;;;;7397879;19;3528;-62
2023/10/31 00:51:06;;;;;;;;;;;19.70;72.00;;;;;;7393572;19;2126;-62
2023/10/31 00:53:32;;;;;;;;;;;19.70;72.00;;;;;;7390288;19;4790;-62
2023/10/31 00:55:57;;;;;;;;;;;19.70;72.00;;;;;;7390591;19;4662;-62
2023/10/31 00:58:23;;;;;;;;;;;19.70;72.10;;;;;;7396371;19;1905;-62
2023/10/31 01:00:48;;;;;;;;;;;19.70;72.20;;;;;;7388126;19;4681;-62
2023/10/31 01:03:14;;;;;;;;;;;19.70;72.20;;;;;;7392998;19;1797;-63
2023/10/31 01:05:39;;;;;;;;;;;19.70;72.20;;;;;;7395156;19;2487;-63
2023/10/31 01:08:05;;;;;;;;;;;19.60;72.30;;;;;;7388723;19;4137;-63
2023/10/31 01:10:30;;;;;;;;;;;19.60;72.20;;;;;;7397509;19;2125;-63
2023/10/31 01:12:56;;;;;;;;;;;19.60;72.20;;;;;;7390775;19;4307;-63
2023/10/31 01:15:21;;;;;;;;;;;19.60;72.20;;;;;;7387357;19;3939;-62
2023/10/31 01:17:47;;;;;;;;;;;19.60;72.20;;;;;;7396245;19;1930;-63
2023/10/31 01:20:12;;;;;;;;;;;19.60;72.30;;;;;;7396302;19;1790;-63
2023/10/31 01:22:38;;;;;;;;;;;19.60;72.30;;;;;;7391795;19;4012;-63
2023/10/31 01:25:03;;;;;;;;;;;19.60;72.30;;;;;;7394602;19;1661;-63
2023/10/31 01:27:29;;;;;;;;;;;19.60;72.40;;;;;;7393145;19;3953;-63
2023/10/31 01:29:54;;;;;;;;;;;19.50;72.30;;;;;;7392480;19;4188;-63
2023/10/31 01:32:19;;;;;;;;;;;19.50;72.20;;;;;;7395139;19;2135;-62
2023/10/31 01:34:45;;;;;;;;;;;19.60;72.50;;;;;;7392302;19;3986;-63
2023/10/31 01:37:10;;;;;;;;;;;19.50;72.30;;;;;;7395503;19;3840;-62
2023/10/31 01:39:36;;;;;;;;;;;19.50;72.40;;;;;;7392954;19;3952;-63
2023/10/31 01:42:01;;;;;;;;;;;19.50;72.40;;;;;;7396175;19;3941;-63
2023/10/31 01:44:27;;;;;;;;;;;19.50;72.50;;;;;;7396133;19;3773;-63
2023/10/31 01:46:52;;;;;;;;;;;19.50;72.40;;;;;;7398925;19;1624;-63
2023/10/31 01:49:18;;;;;;;;;;;19.50;72.60;;;;;;7400775;19;3739;-63
2023/10/31 01:51:44;;;;;;;;;;;19.50;72.50;;;;;;7396496;19;4228;-63
2023/10/31 01:54:09;;;;;;;;;;;19.50;72.50;;;;;;7396374;19;4020;-62
2023/10/31 01:56:34;;;;;;;;;;;19.50;72.50;;;;;;7399688;19;1948;-63
2023/10/31 01:59:00;;;;;;;;;;;19.50;72.50;;;;;;7396227;19;3830;-63
2023/10/31 02:01:25;;;;;;;;;;;19.40;72.40;;;;;;7396988;19;2111;-63
2023/10/31 02:03:51;;;;;;;;;;;19.50;72.50;;;;;;7396238;19;4149;-63
2023/10/31 02:06:16;;;;;;;;;;;19.40;72.40;;;;;;7396441;19;4385;-62
2023/10/31 02:08:42;;;;;;;;;;;19.50;72.60;;;;;;7399623;19;1694;-63
2023/10/31 02:11:09;;;;;;;;;;;19.50;72.60;;;;;;7394337;19;4185;-63
2023/10/31 02:13:35;;;;;;;;;;;19.50;72.70;;;;;;7394992;19;4350;-63
2023/10/31 02:16:01;;;;;;;;;;;19.40;72.50;;;;;;7392381;19;2088;-64
2023/10/31 02:18:27;;;;;;;;;;;19.50;72.10;;;;;;7396984;19;4069;-63
2023/10/31 02:20:52;;;;;;;;;;;19.60;71.90;;;;;;7392121;19;4038;-63
2023/10/31 02:23:17;;;;;;;;;;;19.70;71.70;;;;;;7397510;19;1705;-63
2023/10/31 02:25:43;;;;;;;;;;;19.70;71.50;;;;;;7396946;19;4852;-63
2023/10/31 02:28:08;;;;;;;;;;;19.90;71.20;;;;;;7397007;19;4101;-63
2023/10/31 02:30:34;;;;;;;;;;;20.10;70.60;;;;;;7398802;19;1788;-63
2023/10/31 02:33:00;;;;;;;;;;;20.30;70.10;;;;;;7397214;19;4311;-63
2023/10/31 02:35:26;;;;;;;;;;;20.40;69.50;;;;;;7396569;19;4065;-62
2023/10/31 02:37:51;;;;;;;;;;;20.50;69.00;;;;;;7392873;19;2304;-62
2023/10/31 02:40:17;;;;;;;;;;;20.60;68.50;;;;;;7387834;19;4174;-63
2023/10/31 02:42:42;;;;;;;;;;;20.80;68.20;;;;;;7388386;19;4094;-63
2023/10/31 02:45:08;;;;;;;;;;;20.90;67.90;;;;;;7396430;19;2048;-62
2023/10/31 02:47:33;;;;;;;;;;;20.90;67.70;;;;;;7393683;19;4018;-63
2023/10/31 02:49:58;;;;;;;;;;;21.00;67.50;;;;;;7393405;19;1932;-62
2023/10/31 02:52:24;;;;;;;;;;;21.00;67.50;;;;;;7395630;19;2220;-62
2023/10/31 02:54:49;;;;;;;;;;;21.00;67.50;;;;;;7392366;19;4114;-62
2023/10/31 02:57:15;;;;;;;;;;;21.00;67.50;;;;;;7395972;19;5260;-63
2023/10/31 02:59:40;;;;;;;;;;;21.00;67.50;;;;;;7400910;19;1683;-63
2023/10/31 03:02:06;;;;;;;;;;;20.90;67.40;;;;;;7393337;19;4327;-63
2023/10/31 03:04:31;;;;;;;;;;;20.90;67.40;;;;;;7395882;19;3654;-63
2023/10/31 03:06:57;;;;;;;;;;;20.90;67.60;;;;;;7396476;19;3470;-63
2023/10/31 03:09:22;;;;;;;;;;;20.80;67.80;;;;;;7399065;19;1938;-63
2023/10/31 03:11:47;;;;;;;;;;;20.80;67.90;;;;;;7390219;19;4380;-62
2023/10/31 03:14:13;;;;;;;;;;;20.80;68.10;;;;;;7398697;19;1857;-62
2023/10/31 03:16:39;;;;;;;;;;;20.70;68.10;;;;;;7392429;19;4118;-63
2023/10/31 03:19:04;;;;;;;;;;;20.70;68.30;;;;;;7393699;19;4638;-63
2023/10/31 03:21:30;;;;;;;;;;;20.60;68.50;;;;;;7392753;19;2012;-63
2023/10/31 03:23:55;;;;;;;;;;;20.60;68.60;;;;;;7392900;19;4983;-62
2023/10/31 03:26:21;;;;;;;;;;;20.50;68.80;;;;;;7394503;19;4156;-63
2023/10/31 03:28:46;;;;;;;;;;;20.50;69.00;;;;;;7395828;19;1783;-62
2023/10/31 03:31:12;;;;;;;;;;;20.40;68.90;;;;;;7392328;19;2057;-63
2023/10/31 03:33:37;;;;;;;;;;;20.40;69.20;;;;;;7394404;19;5797;-62
2023/10/31 03:36:03;;;;;;;;;;;20.40;69.40;;;;;;7392652;19;1953;-63
2023/10/31 03:38:29;;;;;;;;;;;20.30;69.50;;;;;;7393364;19;4176;-63
2023/10/31 03:40:54;;;;;;;;;;;20.30;69.50;;;;;;7385806;19;5113;-63
2023/10/31 03:43:19;;;;;;;;;;;20.30;69.80;;;;;;7394229;19;3574;-63
2023/10/31 03:45:46;;;;;;;;;;;20.20;69.90;;;;;;7393015;19;4953;-63
2023/10/31 03:48:11;;;;;;;;;;;20.20;69.80;;;;;;7397243;19;2150;-62
2023/10/31 03:50:36;;;;;;;;;;;20.20;69.70;;;;;;7393828;19;4185;-63
2023/10/31 03:53:02;;;;;;;;;;;20.30;69.70;;;;;;7394274;19;2958;-63
2023/10/31 03:55:27;;;;;;;;;;;20.30;69.70;;;;;;7387734;19;3748;-63
2023/10/31 03:57:53;;;;;;;;;;;20.30;69.70;;;;;;7393117;19;1864;-63
2023/10/31 04:00:18;;;;;;;;;;;20.30;69.40;;;;;;7387296;19;4140;-63
2023/10/31 04:02:44;;;;;;;;;;;20.30;69.50;;;;;;7392080;19;4546;-62
2023/10/31 04:05:09;;;;;;;;;;;20.30;69.60;;;;;;7394187;19;2074;-63
2023/10/31 04:07:34;;;;;;;;;;;20.30;69.60;;;;;;7391673;19;3936;-63
2023/10/31 04:10:00;;;;;;;;;;;20.30;69.60;;;;;;7391489;19;4952;-62
2023/10/31 04:12:25;;;;;;;;;;;20.30;69.50;;;;;;7391755;19;1951;-63
2023/10/31 04:14:51;;;;;;;;;;;20.30;69.40;;;;;;7388010;19;4188;-63
2023/10/31 04:17:16;;;;;;;;;;;20.30;69.60;;;;;;7388625;19;3951;-62
2023/10/31 04:19:42;;;;;;;;;;;20.30;69.60;;;;;;7393719;19;2019;-63
2023/10/31 04:22:07;;;;;;;;;;;20.30;69.70;;;;;;7389338;19;4028;-63
2023/10/31 04:24:33;;;;;;;;;;;20.30;69.70;;;;;;7394182;19;4395;-63
2023/10/31 04:26:58;;;;;;;;;;;20.30;69.60;;;;;;7388518;19;2142;-63
2023/10/31 04:29:23;;;;;;;;;;;20.30;69.80;;;;;;7385620;19;3768;-62
2023/10/31 04:31:49;;;;;;;;;;;20.20;69.80;;;;;;7395104;19;1691;-63
2023/10/31 04:34:14;;;;;;;;;;;20.20;69.90;;;;;;7387703;19;2559;-63
2023/10/31 04:36:40;;;;;;;;;;;20.30;69.80;;;;;;7382546;19;4662;-63
2023/10/31 04:39:05;;;;;;;;;;;20.20;69.80;;;;;;7387610;19;3119;-62
2023/10/31 04:41:31;;;;;;;;;;;20.20;70.00;;;;;;7385875;19;2030;-63
2023/10/31 04:43:56;;;;;;;;;;;20.20;69.90;;;;;;7382107;19;4011;-63
2023/10/31 04:46:21;;;;;;;;;;;20.30;69.70;;;;;;7383311;19;4580;-63
2023/10/31 04:48:47;;;;;;;;;;;20.30;69.40;;;;;;7384568;19;2754;-63
2023/10/31 04:51:12;;;;;;;;;;;20.40;69.20;;;;;;7380821;19;5179;-63
2023/10/31 04:53:38;;;;;;;;;;;20.40;69.10;;;;;;7384554;19;3698;-63
2023/10/31 04:56:03;;;;;;;;;;;20.40;69.70;;;;;;7382407;19;2441;-63
2023/10/31 04:58:29;;;;;;;;;;;20.50;69.10;;;;;;7393255;19;4145;-63
2023/10/31 05:00:54;;;;;;;;;;;20.40;69.00;;;;;;7392787;19;5938;-63
2023/10/31 05:03:20;;;;;;;;;;;20.50;69.00;;;;;;7390491;19;2854;-63
2023/10/31 05:05:45;;;;;;;;;;;20.50;69.10;;;;;;7389293;19;4144;-63
2023/10/31 05:08:11;;;;;;;;;;;20.40;69.00;;;;;;7395034;19;3554;-63
2023/10/31 05:10:36;;;;;;;;;;;20.40;69.00;;;;;;7396329;19;951;-63
2023/10/31 05:13:05;;;;;;;;;;;20.40;69.10;;;;;;7399819;19;3851;-63
2023/10/31 05:15:30;;;;;;;;;;;20.40;69.30;;;;;;7396305;19;2191;-62
2023/10/31 05:17:56;;;;;;;;;;;20.30;69.30;;;;;;7399479;19;4123;-63
2023/10/31 05:20:21;;;;;;;;;;;20.30;69.40;;;;;;7397721;19;4545;-63
2023/10/31 05:22:47;;;;;;;;;;;20.30;69.60;;;;;;7400459;19;3148;-62
2023/10/31 05:25:12;;;;;;;;;;;20.30;69.50;;;;;;7402046;19;1748;-64
2023/10/31 05:27:38;;;;;;;;;;;20.30;69.60;;;;;;7396441;19;4024;-62
2023/10/31 05:30:04;;;;;;;;;;;20.30;69.80;;;;;;7402479;19;3010;-62
2023/10/31 05:32:29;;;;;;;;;;;20.20;69.80;;;;;;7402056;19;2451;-62
2023/10/31 05:34:55;;;;;;;;;;;20.20;69.90;;;;;;7396695;19;4180;-63
2023/10/31 05:37:21;;;;;;;;;;;20.10;70.20;;;;;;7401177;19;1871;-63
2023/10/31 05:39:46;;;;;;;;;;;20.10;70.20;;;;;;7397483;19;3829;-63
2023/10/31 05:42:12;;;;;;;;;;;20.10;70.10;;;;;;7393313;19;4036;-63
2023/10/31 05:44:37;;;;;;;;;;;20.10;70.10;;;;;;7398775;19;3538;-63
2023/10/31 05:47:03;;;;;;;;;;;20.10;70.30;;;;;;7397250;19;1688;-63
2023/10/31 05:49:30;;;;;;;;;;;20.10;70.20;;;;;;7393928;19;4859;-63
2023/10/31 05:51:55;;;;;;;;;;;20.20;70.10;;;;;;7396749;19;3179;-63
2023/10/31 05:54:21;;;;;;;;;;;20.20;69.90;;;;;;7398510;19;1862;-63
2023/10/31 05:56:46;;;;;;;;;;;20.20;69.90;;;;;;7398868;19;4964;-63
2023/10/31 05:59:12;;;;;;;;;;;20.10;70.00;;;;;;7397234;19;5812;-63
2023/10/31 06:01:37;;;;;;;;;;;20.10;70.20;;;;;;7399176;19;1650;-63
2023/10/31 06:04:03;;;;;;;;;;;20.20;70.20;;;;;;7399800;19;3744;-63
2023/10/31 06:06:29;;;;;;;;;;;20.20;69.90;;;;;;7396994;19;4395;-62
2023/10/31 06:08:55;;;;;;;;;;;20.30;69.80;;;;;;7391541;19;1997;-63
2023/10/31 06:11:20;;;;;;;;;;;20.20;70.00;;;;;;7387708;19;4043;-63
2023/10/31 06:13:48;;;;;;;;;;;20.10;70.20;;;;;;7391465;19;2177;-62
2023/10/31 06:16:14;;;;;;;;;;;20.20;70.10;;;;;;7390540;19;4967;-62
2023/10/31 06:18:42;;;;;;;;;;;20.30;69.90;;;;;;7386153;19;3986;-63
2023/10/31 06:21:10;;;;;;;;;;;20.30;69.60;;;;;;7393599;19;2034;-62
2023/10/31 06:23:38;;;;;;;;;;;20.30;69.40;;;;;;7400552;19;1709;-63
2023/10/31 06:26:04;;;;;;;;;;;20.40;69.50;;;;;;7391992;19;4692;-63
2023/10/31 06:28:30;;;;;;;;;;;20.40;69.40;;;;;;7395002;19;1892;-63
2023/10/31 06:30:55;;;;;;;;;;;20.40;69.30;;;;;;7401654;19;1638;-62
2023/10/31 06:33:21;;;;;;;;;;;20.40;69.30;;;;;;7396887;19;4123;-63
2023/10/31 06:35:46;;;;;;;;;;;20.40;69.50;;;;;;7397604;19;1842;-63
2023/10/31 06:38:11;;;;;;;;;;;20.30;69.50;;;;;;7396157;19;5354;-63
2023/10/31 06:40:37;;;;;;;;;;;20.30;69.40;;;;;;7397238;19;4087;-63
2023/10/31 06:43:02;;;;;;;;;;;20.30;69.60;;;;;;7400063;19;1643;-63
2023/10/31 06:45:28;;;;;;;;;;;20.30;69.70;;;;;;7398283;19;4062;-63
2023/10/31 06:47:53;;;;;;;;;;;20.30;69.70;;;;;;7395918;19;4158;-62
2023/10/31 06:50:19;;;;;;;;;;;20.30;69.70;;;;;;7397634;19;1925;-64
2023/10/31 06:52:44;;;;;;;;;;;20.30;69.70;;;;;;7393000;19;4999;-63
2023/10/31 06:55:10;;;;;;;;;;;20.30;69.80;;;;;;7395947;19;3970;-63
2023/10/31 06:57:35;;;;;;;;;;;20.30;69.70;;;;;;7397504;19;3103;-63
2023/10/31 07:00:00;;;;;;;;;;;20.30;69.70;;;;;;7400300;19;3200;-63
2023/10/31 07:02:26;;;;;;;;;;;20.30;69.60;;;;;;7391279;19;4603;-62
2023/10/31 07:04:51;;;;;;;;;;;20.30;69.70;;;;;;7397944;19;2910;-63
2023/10/31 07:07:17;;;;;;;;;;;20.30;69.90;;;;;;7393473;19;3954;-63
2023/10/31 07:09:42;;;;;;;;;;;20.30;69.90;;;;;;7396226;19;4328;-63
2023/10/31 07:12:08;;;;;;;;;;;20.30;69.90;;;;;;7395561;19;921;-62
2023/10/31 07:14:33;;;;;;;;;;;20.30;69.90;;;;;;7396194;19;4681;-63
2023/10/31 07:16:58;;;;;;;;;;;20.20;70.00;;;;;;7393962;19;4071;-63
2023/10/31 07:19:24;;;;;;;;;;;20.20;70.10;;;;;;7396157;19;1194;-63
2023/10/31 07:21:49;;;;;;;;;;;20.20;70.10;;;;;;7393527;19;4145;-63
2023/10/31 07:24:15;;;;;;;;;;;20.10;70.30;;;;;;7398838;19;1879;-62
2023/10/31 07:26:40;;;;;;;;;;;20.10;70.40;;;;;;7394002;19;4055;-63
2023/10/31 07:29:06;;;;;;;;;;;20.20;70.30;;;;;;7396207;19;2038;-63
2023/10/31 07:31:31;;;;;;;;;;;20.20;70.50;;;;;;7396069;19;4039;-63
2023/10/31 07:33:56;;;;;;;;;;;20.10;70.40;;;;;;7395937;19;1649;-63
2023/10/31 07:36:22;;;;;;;;;;;20.10;70.50;;;;;;7391793;19;4098;-62
2023/10/31 07:38:47;;;;;;;;;;;20.20;70.40;;;;;;7396355;19;3881;-63
2023/10/31 07:41:16;;;;;;;;;;;20.20;70.40;;;;;;7394518;19;1577;-62
2023/10/31 07:43:41;;;;;;;;;;;20.20;70.50;;;;;;7392289;19;4219;-62
2023/10/31 07:46:06;;;;;;;;;;;20.10;70.70;;;;;;7393456;19;3921;-63
2023/10/31 07:48:32;;;;;;;;;;;20.00;70.80;;;;;;7397120;19;1722;-63
2023/10/31 07:50:57;;;;;;;;;;;20.10;70.70;;;;;;7397960;19;1640;-63
2023/10/31 07:53:23;;;;;;;;;;;20.20;70.20;;;;;;7396274;19;3933;-63
2023/10/31 07:55:48;;;;;;;;;;;20.20;70.30;;;;;;7395538;19;1873;-62
2023/10/31 07:58:14;;;;;;;;;;;20.10;70.20;;;;;;7393254;19;4186;-63
2023/10/31 08:00:39;;;;;;;;;;;20.10;70.40;;;;;;7390381;19;4046;-63
2023/10/31 08:03:04;;;;;;;;;;;20.10;70.10;;;;;;7394995;19;3101;-63
2023/10/31 08:05:30;;;;;;;;;;;20.10;70.10;;;;;;7395735;19;3054;-63
2023/10/31 08:07:55;;;;;;;;;;;20.10;70.20;;;;;;7393283;19;4528;-63
2023/10/31 08:10:21;;;;;;;;;;;20.10;70.20;;;;;;7394570;19;4040;-63
2023/10/31 08:12:46;;;;;;;;;;;20.20;70.10;;;;;;7395138;19;1526;-63
2023/10/31 08:15:13;;;;;;;;;;;20.20;70.00;;;;;;7390580;19;3822;-63
2023/10/31 08:17:38;;;;;;;;;;;20.20;69.70;;;;;;7396381;19;2306;-62
2023/10/31 08:20:04;;;;;;;;;;;20.30;69.60;;;;;;7392989;19;3735;-63
2023/10/31 08:22:29;;;;;;;;;;;20.30;69.40;;;;;;7393905;19;2014;-62
2023/10/31 08:24:54;;;;;;;;;;;20.40;69.30;;;;;;7384553;19;4154;-60
2023/10/31 08:27:20;;;;;;;;;;;20.30;69.00;;;;;;7387429;19;3615;-60
2023/10/31 08:29:45;;;;;;;;;;;20.30;69.20;;;;;;7388757;19;3966;-60
2023/10/31 08:32:11;;;;;;;;;;;20.30;69.20;;;;;;7393956;19;2151;-60
2023/10/31 08:34:37;;;;;;;;;;;20.20;69.00;;;;;;7390290;19;3748;-60
2023/10/31 08:37:02;;;;;;;;;;;20.10;69.00;;;;;;7394573;19;1670;-61
2023/10/31 08:39:28;;;;;;;;;;;20.10;68.80;;;;;;7394302;19;3995;-61
2023/10/31 08:41:53;;;;;;;;;;;20.00;68.90;;;;;;7395098;19;2682;-60
2023/10/31 08:44:19;;;;;;;;;;;19.90;69.00;;;;;;7384054;19;4437;-61
2023/10/31 08:46:44;;;;;;;;;;;19.90;68.80;;;;;;7391784;19;1881;-60
2023/10/31 08:49:10;;;;;;;;;;;20.00;69.10;;;;;;7395030;19;4551;-61
2023/10/31 08:51:35;;;;;;;;;;;19.90;68.90;;;;;;7386559;19;3268;-60
2023/10/31 08:54:00;;;;;;;;;;;19.90;69.00;;;;;;7394365;19;1720;-61
2023/10/31 08:56:27;;;;;;;;;;;19.80;69.00;;;;;;7388778;19;4364;-60
2023/10/31 08:58:52;;;;;;;;;;;19.80;69.00;;;;;;7390813;19;4045;-60
2023/10/31 09:01:18;;;;;;;;;;;19.80;68.80;;;;;;7395743;19;1749;-60
2023/10/31 09:03:44;;;;;;;;;;;19.80;69.10;;;;;;7391377;19;4629;-61
2023/10/31 09:06:09;;;;;;;;;;;19.70;69.10;;;;;;7389051;19;4560;-60
2023/10/31 09:08:36;;;;;;;;;;;19.70;69.00;;;;;;7390149;19;2889;-60
2023/10/31 09:11:03;;;;;;;;;;;19.70;69.00;;;;;;7388072;19;4702;-60
2023/10/31 09:13:28;;;;;;;;;;;19.70;69.20;;;;;;7389005;19;3085;-60
2023/10/31 09:15:54;;;;;;;;;;;19.70;69.30;;;;;;7390749;19;1858;-60
2023/10/31 09:18:19;;;;;;;;;;;19.70;69.00;;;;;;7390961;19;4463;-61
2023/10/31 09:20:45;;;;;;;;;;;19.90;68.80;;;;;;7391464;19;3218;-60
2023/10/31 09:23:10;;;;;;;;;;;19.90;68.60;;;;;;7393297;19;1670;-59
2023/10/31 09:25:36;;;;;;;;;;;19.90;68.60;;;;;;7389375;19;4196;-60
2023/10/31 09:28:01;;;;;;;;;;;19.80;68.70;;;;;;7390883;19;5797;-60
2023/10/31 09:30:27;;;;;;;;;;;19.80;69.00;;;;;;7396062;19;1945;-60
2023/10/31 09:32:52;;;;;;;;;;;19.80;68.80;;;;;;7388782;19;4223;-60
2023/10/31 09:35:18;;;;;;;;;;;19.90;68.80;;;;;;7393678;19;3574;-60
2023/10/31 09:37:43;;;;;;;;;;;19.90;68.80;;;;;;7393216;19;1635;-60
2023/10/31 09:40:10;;;;;;;;;;;20.00;69.00;;;;;;7390705;19;6142;-60
2023/10/31 09:42:35;;;;;;;;;;;20.00;68.80;;;;;;7393902;19;2549;-60
2023/10/31 09:45:01;;;;;;;;;;;20.00;68.80;;;;;;7392975;19;1725;-60
2023/10/31 09:47:26;;;;;;;;;;;20.10;68.80;;;;;;7388992;19;3804;-60
2023/10/31 09:49:51;;;;;;;;;;;20.10;68.80;;;;;;7391400;19;4167;-60
2023/10/31 09:52:20;;;;;;;;;;;20.10;68.70;;;;;;7392386;19;1724;-60
2023/10/31 09:54:45;;;;;;;;;;;20.10;68.80;;;;;;7390515;19;4366;-60
2023/10/31 09:57:11;;;;;;;;;;;20.10;68.70;;;;;;7396304;19;3784;-60
2023/10/31 09:59:36;;;;;;;;;;;20.10;68.60;;;;;;7400381;19;2001;-60
2023/10/31 10:02:01;;;;;;;;;;;20.10;68.90;;;;;;7396363;19;4050;-59
2023/10/31 10:04:27;;;;;;;;;;;20.10;68.90;;;;;;7396656;19;4120;-60
2023/10/31 10:07:01;;;;;;;;;;;20.10;69.00;;;;;;7392325;19;4834;-60
2023/10/31 10:09:27;;;;;;;;;;;20.00;69.00;;;;;;7395252;19;3720;-61
2023/10/31 10:11:53;;;;;;;;;;;20.00;69.00;;;;;;7394904;19;3749;-60
2023/10/31 10:14:18;;;;;;;;;;;20.10;69.70;;;;;;7401620;19;1650;-60
2023/10/31 10:16:44;;;;;;;;;;;20.10;69.20;;;;;;7394588;19;4245;-60
2023/10/31 10:19:22;;;;;;;;;;;20.00;69.20;;;;;;7397812;19;4073;-60
2023/10/31 10:21:50;;;;;;;;;;;20.00;69.10;;;;;;7399853;19;1643;-60
2023/10/31 10:24:16;;;;;;;;;;;20.00;69.10;;;;;;7398122;19;4176;-60
2023/10/31 10:26:42;;;;;;;;;;;20.00;69.10;;;;;;7399146;19;1920;-59
2023/10/31 10:29:07;;;;;;;;;;;20.10;69.10;;;;;;7394763;19;5297;-59
2023/10/31 10:31:33;;;;;;;;;;;20.10;68.90;;;;;;7395607;19;4073;-59
2023/10/31 10:33:58;;;;;;;;;;;20.10;69.10;;;;;;7396994;19;1855;-60
2023/10/31 10:36:24;;;;;;;;;;;20.00;69.20;;;;;;7388571;19;3684;-59
2023/10/31 10:38:49;;;;;;;;;;;20.10;69.20;;;;;;7394735;19;4040;-60
2023/10/31 10:41:14;;;;;;;;;;;20.10;69.00;;;;;;7396158;19;2015;-59
2023/10/31 10:43:40;;;;;;;;;;;20.20;68.80;;;;;;7397395;19;2115;-59
2023/10/31 10:46:06;;;;;;;;;;;20.30;68.60;;;;;;7392288;19;4027;-59
2023/10/31 10:48:32;;;;;;;;;;;20.30;68.30;;;;;;7395770;19;2111;-59
2023/10/31 10:51:17;;;;;;;;;;;20.30;68.30;;;;;;7390055;19;3717;-60
2023/10/31 10:53:49;;;;;;;;;;;20.40;68.30;;;;;;7397287;19;3973;-60
2023/10/31 10:56:37;;;;;;;;;;;20.30;68.20;;;;;;7395304;19;2044;-59
2023/10/31 10:59:03;;;;;;;;;;;20.30;68.10;;;;;;7394379;19;3802;-60
2023/10/31 11:01:30;;;;;;;;;;;20.30;68.40;;;;;;7394546;19;1945;-60
2023/10/31 11:03:56;;;;;;;;;;;20.30;68.40;;;;;;7392433;19;3977;-60
2023/10/31 11:06:21;;;;;;;;;;;20.30;68.40;;;;;;7393303;19;3438;-59
2023/10/31 11:08:47;;;;;;;;;;;20.30;68.60;;;;;;7392327;19;4018;-59
2023/10/31 11:11:12;;;;;;;;;;;20.20;68.60;;;;;;7395142;19;2345;-59
2023/10/31 11:13:38;;;;;;;;;;;20.20;68.70;;;;;;7392687;19;4037;-60
2023/10/31 11:16:06;;;;;;;;;;;20.10;68.80;;;;;;7390355;19;3908;-59
2023/10/31 11:18:31;;;;;;;;;;;20.10;68.90;;;;;;7398252;19;3374;-59
2023/10/31 11:20:57;;;;;;;;;;;20.10;69.20;;;;;;7399779;19;1408;-59
2023/10/31 11:23:22;;;;;;;;;;;20.30;69.50;;;;;;7394510;19;4107;-59
2023/10/31 11:25:50;;;;;;;;;;;20.70;68.80;;;;;;7396120;19;1833;-60
2023/10/31 11:28:16;;;;;;;;;;;21.40;67.00;;;;;;7377197;19;4821;-60
2023/10/31 11:30:43;;;;;;;;;;;22.10;65.00;;;;;;7393946;19;3540;-61
2023/10/31 11:33:15;;;;;;;;;;;22.30;63.90;;;;;;7396133;19;3136;-61
2023/10/31 11:35:40;;;;;;;;;;;22.30;63.80;;;;;;7392344;19;3519;-60
2023/10/31 11:38:10;;;;;;;;;;;22.30;63.90;;;;;;7391694;19;3122;-61
2023/10/31 11:40:36;;;;;;;;;;;22.50;63.60;;;;;;7394128;19;3571;-61
2023/10/31 11:43:02;;;;;;;;;;;22.70;62.90;;;;;;7391833;19;4631;-62
2023/10/31 11:45:44;;;;;;;;;;;22.70;62.40;;;;;;7390538;19;3572;-61
2023/10/31 11:48:10;;;;;;;;;;;22.70;62.40;;;;;;7392134;19;3403;-61
2023/10/31 11:50:36;;;;;;;;;;;22.70;62.50;;;;;;7394027;19;3502;-60
2023/10/31 11:53:07;;;;;;;;;;;22.90;62.20;;;;;;7389995;19;4783;-61
2023/10/31 11:55:36;;;;;;;;;;;23.20;61.50;;;;;;7394327;19;4950;-61
2023/10/31 11:58:20;;;;;;;;;;;23.40;60.70;;;;;;7390470;19;6367;-59
2023/10/31 12:00:47;;;;;;;;;;;23.50;60.40;;;;;;7395724;19;1874;-60
2023/10/31 12:03:14;;;;;;;;;;;23.20;60.60;;;;;;7393054;19;3536;-61
2023/10/31 12:05:40;;;;;;;;;;;23.10;61.40;;;;;;7390758;19;6940;-62
2023/10/31 12:08:05;;;;;;;;;;;23.10;61.70;;;;;;7390116;19;4972;-61
2023/10/31 12:10:31;;;;;;;;;;;23.20;61.50;;;;;;7391173;19;5261;-61
2023/10/31 12:12:56;;;;;;;;;;;23.40;60.90;;;;;;7385671;19;4671;-62
2023/10/31 12:15:22;;;;;;;;;;;23.60;60.20;;;;;;7389444;19;4598;-60
2023/10/31 12:17:48;;;;;;;;;;;23.70;59.60;;;;;;7389010;19;8253;-61
2023/10/31 12:20:13;;;;;;;;;;;23.70;59.60;;;;;;7389670;19;4641;-60
2023/10/31 12:22:40;;;;;;;;;;;23.50;59.90;;;;;;7394766;19;2928;-60
2023/10/31 12:25:09;;;;;;;;;;;23.30;60.70;;;;;;7391269;19;4881;-60
2023/10/31 12:27:47;;;;;;;;;;;23.10;61.90;;;;;;7390700;19;3740;-60
2023/10/31 12:30:13;;;;;;;;;;;23.10;61.40;;;;;;7393590;19;4987;-61
2023/10/31 12:32:40;;;;;;;;;;;23.30;61.10;;;;;;7394076;19;3008;-62
2023/10/31 12:35:05;;;;;;;;;;;23.30;60.90;;;;;;7389306;19;5605;-60
2023/10/31 12:37:31;;;;;;;;;;;23.00;61.60;;;;;;7392156;19;3505;-60
2023/10/31 12:39:56;;;;;;;;;;;22.80;62.10;;;;;;7389000;19;4904;-60
2023/10/31 12:42:22;;;;;;;;;;;22.90;62.20;;;;;;7379395;19;3341;-61
2023/10/31 12:44:47;;;;;;;;;;;23.00;62.10;;;;;;7392243;19;5046;-61
2023/10/31 12:47:20;;;;;;;;;;;22.80;62.30;;;;;;7388052;19;5008;-60
2023/10/31 12:49:46;;;;;;;;;;;22.70;62.60;;;;;;7392487;19;2969;-60
2023/10/31 12:52:11;;;;;;;;;;;22.70;62.90;;;;;;7386728;19;4659;-61
2023/10/31 12:54:37;;;;;;;;;;;22.80;62.80;;;;;;7381996;19;4876;-61
2023/10/31 12:57:04;;;;;;;;;;;22.70;62.80;;;;;;7375004;19;4823;-60
2023/10/31 12:59:30;;;;;;;;;;;22.70;62.90;;;;;;7392604;19;1686;-60
2023/10/31 13:01:55;;;;;;;;;;;22.80;62.90;;;;;;7390880;19;4788;-61
2023/10/31 13:04:27;;;;;;;;;;;22.90;62.30;;;;;;7388776;19;4239;-61
2023/10/31 13:06:56;;;;;;;;;;;22.90;62.30;;;;;;7389407;19;2990;-61
2023/10/31 13:09:22;;;;;;;;;;;22.80;62.40;;;;;;7390877;19;3397;-60
2023/10/31 13:11:47;;;;;;;;;;;22.90;62.50;;;;;;7382772;19;7554;-60
2023/10/31 13:14:13;;;;;;;;;;;23.10;61.80;;;;;;7387641;19;4669;-59
2023/10/31 13:16:38;;;;;;;;;;;23.40;61.10;;;;;;7388345;19;5270;-60
2023/10/31 13:19:04;;;;;;;;;;;23.60;60.30;;;;;;7393531;19;1817;-60
2023/10/31 13:21:29;;;;;;;;;;;23.70;60.00;;;;;;7389300;19;3477;-60
2023/10/31 13:23:55;;;;;;;;;;;23.90;59.60;;;;;;7391925;19;4969;-60
2023/10/31 13:26:20;;;;;;;;;;;23.90;59.40;;;;;;7395077;19;3609;-61
2023/10/31 13:28:46;;;;;;;;;;;24.00;59.30;;;;;;7389515;19;4831;-61
2023/10/31 13:31:12;;;;;;;;;;;23.80;59.60;;;;;;7392232;19;4957;-62
2023/10/31 13:33:38;;;;;;;;;;;23.50;60.20;;;;;;7396266;19;4906;-62
2023/10/31 13:36:04;;;;;;;;;;;23.30;60.70;;;;;;7395979;19;3920;-63
2023/10/31 13:38:29;;;;;;;;;;;23.30;61.10;;;;;;7394897;19;2940;-62
2023/10/31 13:40:55;;;;;;;;;;;23.50;60.90;;;;;;7399204;19;1727;-61
2023/10/31 13:43:20;;;;;;;;;;;23.70;60.30;;;;;;7395262;19;6326;-62
2023/10/31 13:45:46;;;;;;;;;;;23.70;59.70;;;;;;7384404;19;4329;-62
2023/10/31 13:48:13;;;;;;;;;;;23.80;59.60;;;;;;7397820;19;3312;-65
2023/10/31 13:50:38;;;;;;;;;;;24.00;59.50;;;;;;7399569;19;1800;-64
2023/10/31 13:53:06;;;;;;;;;;;24.00;59.30;;;;;;7398341;19;1327;-63
2023/10/31 13:55:31;;;;;;;;;;;24.00;59.30;;;;;;7397674;19;3533;-63
2023/10/31 13:57:56;;;;;;;;;;;24.00;59.20;;;;;;7389987;19;4382;-64
2023/10/31 14:00:22;;;;;;;;;;;24.00;59.10;;;;;;7390105;19;3915;-64
2023/10/31 14:02:47;;;;;;;;;;;24.00;59.10;;;;;;7386191;19;2888;-64
2023/10/31 14:05:13;;;;;;;;;;;24.00;59.10;;;;;;7394841;19;3616;-63
2023/10/31 14:07:38;;;;;;;;;;;24.00;59.20;;;;;;7399136;19;3504;-63
2023/10/31 14:10:04;;;;;;;;;;;23.80;59.30;;;;;;7394742;19;4946;-64
2023/10/31 14:12:29;;;;;;;;;;;23.80;59.40;;;;;;7396316;19;4078;-63
2023/10/31 14:14:55;;;;;;;;;;;23.70;59.50;;;;;;7394191;19;3534;-64
2023/10/31 14:17:22;;;;;;;;;;;23.80;59.40;;;;;;7392817;19;3366;-63
2023/10/31 14:19:48;;;;;;;;;;;23.80;59.40;;;;;;7396336;19;4688;-63
2023/10/31 14:22:14;;;;;;;;;;;23.80;59.50;;;;;;7385837;19;4840;-64